Time;durP1;ratioP1;P1;durP2;ratioP2;P2;SDS_P1;SDS_P2;PMS_P1;PMS_P2;Temp;Humidity;BMP_temperature;BMP_pressure;BME280_temperature;BME280_humidity;BME280_pressure;Samples;Min_cycle;Max_cycle;Signal;HPM_P1;HPM_P2
2021/06/16 00:01:35;;;;;;;4.80;3.05;;;21.60;87.30;;;;;;5074049;28;20024;-62
2021/06/16 00:04:02;;;;;;;5.30;2.85;;;21.60;87.50;;;;;;5073726;28;20038;-62
2021/06/16 00:06:27;;;;;;;4.03;2.65;;;21.50;87.40;;;;;;5073697;28;20327;-62
2021/06/16 00:08:53;;;;;;;6.75;2.85;;;21.40;87.70;;;;;;5073702;28;20027;-63
2021/06/16 00:11:19;;;;;;;9.05;2.80;;;21.40;87.80;;;;;;5073793;28;20500;-62
2021/06/16 00:13:44;;;;;;;5.60;3.00;;;21.30;88.10;;;;;;5073689;28;20028;-62
2021/06/16 00:16:10;;;;;;;5.20;3.10;;;21.20;88.20;;;;;;5073806;28;20021;-63
2021/06/16 00:18:36;;;;;;;2.92;2.25;;;21.20;88.30;;;;;;5073679;28;20477;-62
2021/06/16 00:21:01;;;;;;;2.75;2.53;;;21.10;88.70;;;;;;5073569;28;20478;-62
2021/06/16 00:23:27;;;;;;;4.72;3.10;;;21.10;88.80;;;;;;5074023;28;20086;-62
2021/06/16 00:25:52;;;;;;;2.95;2.13;;;21.10;88.90;;;;;;5073512;28;20471;-62
2021/06/16 00:28:18;;;;;;;5.55;2.97;;;21.10;88.90;;;;;;5073449;28;20056;-62
2021/06/16 00:30:44;;;;;;;5.60;2.33;;;21.10;88.80;;;;;;5073297;28;20032;-63
2021/06/16 00:33:10;;;;;;;5.85;3.30;;;21.10;88.30;;;;;;5073057;28;20492;-62
2021/06/16 00:35:35;;;;;;;5.20;2.60;;;21.20;87.60;;;;;;5073401;28;20086;-63
2021/06/16 00:38:01;;;;;;;3.88;2.38;;;21.10;87.70;;;;;;5072024;28;20161;-62
2021/06/16 00:40:30;;;;;;;3.63;2.53;;;21.00;88.50;;;;;;5073741;28;20036;-63
2021/06/16 00:42:57;;;;;;;3.13;2.75;;;21.00;88.90;;;;;;5073850;28;20033;-62
2021/06/16 00:45:23;;;;;;;4.53;2.80;;;20.90;89.20;;;;;;5071973;28;20052;-63
2021/06/16 00:47:54;;;;;;;3.83;2.45;;;20.80;89.50;;;;;;5073381;28;20063;-62
2021/06/16 00:50:22;;;;;;;4.15;2.70;;;20.70;89.90;;;;;;5073359;28;20016;-62
2021/06/16 00:52:48;;;;;;;3.55;2.47;;;20.70;89.90;;;;;;5073288;28;20021;-61
2021/06/16 00:55:14;;;;;;;5.63;2.70;;;20.60;90.00;;;;;;5073381;28;20086;-62
2021/06/16 00:57:40;;;;;;;5.22;3.03;;;20.50;90.30;;;;;;5073180;28;20116;-62
2021/06/16 01:00:23;;;;;;;3.75;2.63;;;20.50;90.50;;;;;;5073250;28;20033;-62
2021/06/16 01:03:11;;;;;;;3.20;2.33;;;20.40;90.80;;;;;;5073273;28;20570;-62
2021/06/16 01:05:47;;;;;;;7.93;3.10;;;20.30;91.00;;;;;;5072872;28;20016;-62
2021/06/16 01:08:18;;;;;;;4.85;2.80;;;20.30;91.20;;;;;;5071388;28;20059;-62
2021/06/16 01:10:47;;;;;;;8.13;3.10;;;20.20;91.70;;;;;;5073210;28;20381;-62
2021/06/16 01:13:47;;;;;;;4.57;2.75;;;20.20;92.20;;;;;;5072629;28;20035;-62
2021/06/16 01:16:21;;;;;;;4.60;3.05;;;20.10;92.40;;;;;;5068838;28;20043;-62
2021/06/16 01:18:50;;;;;;;3.25;2.63;;;20.10;92.60;;;;;;5072683;28;20036;-63
2021/06/16 01:21:18;;;;;;;5.15;3.22;;;20.00;92.60;;;;;;5072825;28;20016;-62
2021/06/16 01:24:04;;;;;;;3.22;2.83;;;20.00;92.50;;;;;;5072647;28;20029;-62
2021/06/16 01:26:35;;;;;;;3.90;2.60;;;20.00;92.70;;;;;;5072851;28;20105;-62
2021/06/16 01:29:09;;;;;;;4.20;2.53;;;19.90;92.60;;;;;;5072720;28;20021;-61
2021/06/16 01:31:35;;;;;;;5.32;2.58;;;19.80;92.70;;;;;;5071326;28;20026;-62
2021/06/16 01:34:02;;;;;;;5.22;2.90;;;19.80;92.70;;;;;;5072820;28;20084;-62
2021/06/16 01:36:28;;;;;;;8.88;2.92;;;19.70;92.90;;;;;;5072576;28;20032;-61
2021/06/16 01:38:55;;;;;;;5.25;2.60;;;19.70;93.10;;;;;;5072562;28;20428;-63
2021/06/16 01:41:21;;;;;;;4.35;2.60;;;19.70;93.30;;;;;;5072649;28;20025;-61
2021/06/16 01:43:50;;;;;;;4.55;2.80;;;19.60;93.20;;;;;;5073007;28;20078;-62
2021/06/16 01:46:18;;;;;;;4.60;2.92;;;19.60;93.10;;;;;;5076678;28;20032;-63
2021/06/16 01:48:46;;;;;;;4.88;2.65;;;19.60;93.00;;;;;;5076507;28;20021;-64
2021/06/16 01:51:13;;;;;;;3.60;2.80;;;19.70;92.80;;;;;;5076719;28;20446;-63
2021/06/16 01:53:41;;;;;;;3.90;2.65;;;19.70;92.80;;;;;;5076575;28;20040;-63
2021/06/16 01:56:08;;;;;;;2.40;2.20;;;19.70;92.90;;;;;;5077505;28;20028;-62
2021/06/16 01:58:35;;;;;;;5.97;2.60;;;19.70;93.00;;;;;;5075998;28;20025;-62
2021/06/16 02:01:02;;;;;;;4.97;2.63;;;19.60;93.20;;;;;;5076396;28;20117;-63
2021/06/16 02:03:29;;;;;;;4.45;3.03;;;19.50;93.70;;;;;;5076153;28;20032;-63
2021/06/16 02:06:01;;;;;;;3.92;2.75;;;19.50;93.80;;;;;;5076141;28;20028;-63
2021/06/16 02:08:29;;;;;;;3.63;3.00;;;19.40;94.00;;;;;;5076610;28;20021;-63
2021/06/16 02:10:56;;;;;;;5.22;2.80;;;19.40;94.20;;;;;;5075941;28;20020;-63
2021/06/16 02:13:32;;;;;;;3.17;2.65;;;19.40;94.40;;;;;;5076084;28;20032;-62
2021/06/16 02:16:04;;;;;;;3.72;2.55;;;19.40;94.50;;;;;;5074759;28;20031;-61
2021/06/16 02:18:37;;;;;;;6.60;2.75;;;19.30;94.60;;;;;;5076108;28;20032;-63
2021/06/16 02:21:03;;;;;;;5.55;3.03;;;19.40;94.70;;;;;;5075979;28;20028;-63
2021/06/16 02:23:29;;;;;;;5.78;2.45;;;19.40;94.80;;;;;;5076118;28;20401;-62
2021/06/16 02:25:56;;;;;;;6.75;2.92;;;19.30;94.80;;;;;;5076104;28;20024;-64
2021/06/16 02:28:21;;;;;;;5.40;3.03;;;19.30;94.90;;;;;;5076011;28;20021;-61
2021/06/16 02:30:47;;;;;;;3.85;2.90;;;19.30;95.10;;;;;;5076080;28;20389;-62
2021/06/16 02:33:13;;;;;;;4.65;2.92;;;19.30;95.20;;;;;;5076007;28;20484;-62
2021/06/16 02:35:39;;;;;;;4.70;2.47;;;19.20;95.40;;;;;;5076094;28;20029;-62
2021/06/16 02:38:19;;;;;;;6.47;2.80;;;19.10;95.50;;;;;;5076946;28;20024;-62
2021/06/16 02:40:46;;;;;;;7.25;2.78;;;19.10;95.60;;;;;;5076014;28;20021;-64
2021/06/16 02:43:13;;;;;;;5.30;2.72;;;19.10;95.60;;;;;;5074566;28;20032;-63
2021/06/16 02:45:39;;;;;;;3.45;2.50;;;19.10;95.60;;;;;;5075745;28;20027;-62
2021/06/16 02:48:10;;;;;;;4.72;2.60;;;19.10;95.50;;;;;;5075614;28;20082;-63
2021/06/16 02:50:37;;;;;;;4.32;2.92;;;19.10;95.30;;;;;;5075643;28;20112;-63
2021/06/16 02:53:08;;;;;;;5.00;2.63;;;19.10;95.20;;;;;;5075482;28;20495;-62
2021/06/16 02:55:37;;;;;;;4.53;2.95;;;19.20;95.20;;;;;;5075198;28;20027;-63
2021/06/16 02:58:04;;;;;;;3.05;2.67;;;19.10;95.00;;;;;;5075476;28;20330;-63
2021/06/16 03:00:31;;;;;;;5.30;2.90;;;19.10;95.10;;;;;;5075203;28;20031;-62
2021/06/16 03:02:58;;;;;;;3.25;2.60;;;19.10;95.10;;;;;;5075282;28;20142;-62
2021/06/16 03:05:25;;;;;;;5.07;2.40;;;19.10;95.20;;;;;;5075543;28;20029;-62
2021/06/16 03:07:55;;;;;;;5.13;2.65;;;19.10;95.30;;;;;;5075681;28;20477;-62
2021/06/16 03:10:23;;;;;;;4.18;2.53;;;19.10;95.30;;;;;;5075260;28;20024;-62
2021/06/16 03:12:51;;;;;;;3.47;2.70;;;19.00;95.30;;;;;;5075181;28;20021;-63
2021/06/16 03:15:18;;;;;;;5.13;2.83;;;19.00;95.40;;;;;;5075113;28;20050;-62
2021/06/16 03:17:44;;;;;;;;;;;19.00;95.70;;;;;;5075498;28;20024;-62
2021/06/16 03:20:12;;;;;;;6.55;2.95;;;19.00;95.80;;;;;;5075770;28;20005;-63
2021/06/16 03:22:39;;;;;;;6.53;3.03;;;19.00;95.90;;;;;;5075063;28;20036;-62
2021/06/16 03:25:05;;;;;;;4.00;2.95;;;19.00;96.10;;;;;;5074828;28;20554;-62
2021/06/16 03:27:32;;;;;;;3.90;2.58;;;18.90;96.20;;;;;;5074903;28;20048;-62
2021/06/16 03:29:59;;;;;;;6.60;3.45;;;18.90;96.30;;;;;;5074771;28;20020;-62
2021/06/16 03:32:27;;;;;;;5.32;3.00;;;18.90;96.50;;;;;;5074921;28;20024;-62
2021/06/16 03:34:52;;;;;;;4.35;2.90;;;18.90;96.60;;;;;;5074697;28;20031;-62
2021/06/16 03:37:19;;;;;;;4.50;2.88;;;18.90;96.70;;;;;;5074782;28;20095;-62
2021/06/16 03:39:51;;;;;;;2.95;2.58;;;18.90;96.90;;;;;;5074643;28;20033;-62
2021/06/16 03:42:18;;;;;;;3.60;2.63;;;18.80;97.10;;;;;;5075493;28;20024;-62
2021/06/16 03:44:45;;;;;;;4.95;3.10;;;18.80;97.10;;;;;;5073449;28;20094;-62
2021/06/16 03:47:12;;;;;;;4.38;2.33;;;18.80;97.10;;;;;;5074618;28;20012;-63
2021/06/16 03:49:40;;;;;;;5.72;3.00;;;18.80;97.10;;;;;;5074522;28;20031;-61
2021/06/16 03:52:07;;;;;;;5.93;3.08;;;18.70;97.30;;;;;;5074340;28;20044;-62
2021/06/16 03:54:35;;;;;;;4.05;2.90;;;18.70;97.50;;;;;;5074487;28;20095;-63
2021/06/16 03:57:00;;;;;;;8.68;2.90;;;18.70;97.80;;;;;;5074645;28;20479;-62
2021/06/16 03:59:27;;;;;;;7.55;2.72;;;18.60;97.90;;;;;;5074422;28;20060;-61
2021/06/16 04:01:53;;;;;;;6.95;3.03;;;18.60;98.30;;;;;;5073979;28;20032;-61
2021/06/16 04:04:19;;;;;;;6.38;2.78;;;18.60;98.50;;;;;;5074210;28;20032;-61
2021/06/16 04:06:46;;;;;;;6.95;3.17;;;18.60;98.80;;;;;;5073590;28;20545;-61
2021/06/16 04:09:14;;;;;;;5.03;3.40;;;18.50;99.10;;;;;;5074297;28;20477;-61
2021/06/16 04:11:41;;;;;;;7.03;3.53;;;18.50;99.40;;;;;;5073966;28;20029;-61
2021/06/16 04:14:07;;;;;;;5.07;3.17;;;18.50;99.70;;;;;;5074000;28;20032;-62
2021/06/16 04:16:32;;;;;;;5.03;3.08;;;18.50;99.90;;;;;;5073811;28;20108;-63
2021/06/16 04:18:58;;;;;;;8.73;3.53;;;18.50;99.90;;;;;;5072588;28;20115;-62
2021/06/16 04:21:24;;;;;;;7.15;3.17;;;18.50;99.90;;;;;;5073774;28;20024;-62
2021/06/16 04:23:51;;;;;;;6.00;3.00;;;18.60;99.90;;;;;;5074107;28;20424;-61
2021/06/16 04:26:19;;;;;;;5.40;3.25;;;18.60;99.90;;;;;;5074033;28;20381;-61
2021/06/16 04:28:44;;;;;;;6.00;3.55;;;18.70;99.90;;;;;;5073837;28;20021;-63
2021/06/16 04:31:11;;;;;;;5.57;3.60;;;18.70;99.90;;;;;;5073629;28;20082;-63
2021/06/16 04:33:36;;;;;;;4.95;3.60;;;18.70;99.90;;;;;;5073969;28;20085;-63
2021/06/16 04:36:03;;;;;;;6.57;3.40;;;18.70;99.90;;;;;;5073939;28;20103;-63
2021/06/16 04:38:29;;;;;;;5.10;3.63;;;18.70;99.90;;;;;;5073505;28;20493;-63
2021/06/16 04:40:55;;;;;;;5.70;3.80;;;18.70;99.90;;;;;;5073531;28;20032;-63
2021/06/16 04:43:21;;;;;;;6.22;4.28;;;18.70;99.90;;;;;;5073244;28;20397;-63
2021/06/16 04:45:46;;;;;;;7.20;3.80;;;18.70;99.90;;;;;;5073850;28;20509;-63
2021/06/16 04:48:12;;;;;;;7.50;4.07;;;18.70;99.90;;;;;;5073849;28;20048;-64
2021/06/16 04:50:38;;;;;;;7.35;4.30;;;18.90;99.90;;;;;;5073663;28;20103;-63
2021/06/16 04:53:04;;;;;;;;;;;19.00;99.90;;;;;;5074409;28;20032;-64
2021/06/16 04:55:30;;;;;;;8.15;4.78;;;19.00;99.90;;;;;;5073526;28;19930;-64
2021/06/16 04:57:56;;;;;;;5.75;4.25;;;19.00;99.90;;;;;;5073478;28;20139;-64
2021/06/16 05:00:22;;;;;;;5.80;4.47;;;19.00;99.90;;;;;;5073812;28;20028;-63
2021/06/16 05:02:52;;;;;;;5.70;4.63;;;19.00;99.90;;;;;;5072000;28;20077;-65
2021/06/16 05:05:18;;;;;;;7.53;4.90;;;19.00;99.90;;;;;;5074320;28;20074;-64
2021/06/16 05:07:44;;;;;;;8.45;4.80;;;18.90;99.90;;;;;;5073666;28;20016;-63
2021/06/16 05:10:10;;;;;;;5.47;4.40;;;19.00;99.90;;;;;;5073041;28;20031;-63
2021/06/16 05:12:35;;;;;;;;;;;19.00;99.90;;;;;;5073612;28;20032;-64
2021/06/16 05:15:01;;;;;;;6.97;4.57;;;19.10;99.90;;;;;;5073020;28;19969;-64
2021/06/16 05:17:27;;;;;;;7.28;4.22;;;19.20;99.90;;;;;;5072878;28;20033;-62
2021/06/16 05:19:57;;;;;;;5.68;4.03;;;19.20;99.90;;;;;;5072760;28;20103;-64
2021/06/16 05:22:23;;;;;;;7.60;3.97;;;19.30;99.90;;;;;;5072749;28;20032;-63
2021/06/16 05:24:49;;;;;;;6.65;4.13;;;19.40;99.90;;;;;;5072820;28;20016;-63
2021/06/16 05:27:15;;;;;;;12.63;4.60;;;19.60;99.90;;;;;;5071291;28;20024;-62
2021/06/16 05:29:41;;;;;;;;;;;19.70;99.90;;;;;;5073139;28;20095;-63
2021/06/16 05:32:07;;;;;;;6.43;3.97;;;19.80;99.90;;;;;;5072845;28;20372;-63
2021/06/16 05:34:33;;;;;;;12.05;4.45;;;20.00;99.90;;;;;;5072637;28;20028;-62
2021/06/16 05:36:59;;;;;;;6.53;4.25;;;20.10;99.90;;;;;;5073303;28;20032;-62
2021/06/16 05:39:25;;;;;;;10.10;4.30;;;20.10;99.90;;;;;;5072508;28;20028;-62
2021/06/16 05:41:51;;;;;;;7.78;3.95;;;20.20;99.90;;;;;;5072789;28;20025;-63
2021/06/16 05:44:17;;;;;;;8.98;3.85;;;20.20;99.90;;;;;;5072518;28;20443;-62
2021/06/16 05:46:42;;;;;;;8.65;4.00;;;20.30;99.90;;;;;;5072647;28;20024;-64
2021/06/16 05:49:08;;;;;;;6.25;4.18;;;20.40;99.90;;;;;;5072507;28;20025;-62
2021/06/16 05:51:34;;;;;;;5.40;4.07;;;20.40;99.90;;;;;;5072116;28;20043;-59
2021/06/16 05:53:59;;;;;;;8.57;3.50;;;20.50;99.70;;;;;;5072741;28;20108;-62
2021/06/16 05:56:25;;;;;;;9.65;4.10;;;20.60;99.50;;;;;;5072691;28;20035;-61
2021/06/16 05:58:51;;;;;;;5.32;3.50;;;20.70;99.40;;;;;;5072416;28;20024;-61
2021/06/16 06:01:17;;;;;;;13.80;3.50;;;20.80;98.80;;;;;;5072375;28;20024;-61
2021/06/16 06:03:42;;;;;;;5.68;2.83;;;20.90;98.30;;;;;;5072662;28;20024;-60
2021/06/16 06:06:09;;;;;;;7.75;3.45;;;20.90;98.00;;;;;;5072344;28;20048;-61
2021/06/16 06:08:35;;;;;;;5.53;3.35;;;21.00;97.90;;;;;;5072324;28;20020;-61
2021/06/16 06:11:01;;;;;;;5.38;3.33;;;21.10;97.70;;;;;;5072182;28;20381;-62
2021/06/16 06:13:27;;;;;;;8.18;3.47;;;21.10;97.40;;;;;;5072204;28;20040;-63
2021/06/16 06:15:52;;;;;;;5.32;3.10;;;21.20;97.20;;;;;;5071986;28;20029;-61
2021/06/16 06:18:18;;;;;;;6.97;3.55;;;21.30;97.10;;;;;;5072110;28;20025;-62
2021/06/16 06:20:43;;;;;;;7.00;3.35;;;21.40;96.90;;;;;;5072129;28;20040;-61
2021/06/16 06:23:09;;;;;;;11.68;4.07;;;21.50;96.50;;;;;;5072117;28;20481;-61
2021/06/16 06:25:36;;;;;;;4.97;2.75;;;21.50;96.60;;;;;;5072458;28;20513;-61
2021/06/16 06:28:02;;;;;;;7.90;4.25;;;21.60;96.30;;;;;;5072386;28;20024;-61
2021/06/16 06:30:27;;;;;;;10.80;4.20;;;21.70;96.10;;;;;;5073335;28;20031;-61
2021/06/16 06:32:53;;;;;;;8.80;4.00;;;21.80;96.20;;;;;;5075596;28;20032;-62
2021/06/16 06:35:19;;;;;;;5.85;3.45;;;21.90;95.80;;;;;;5075554;28;20033;-60
2021/06/16 06:37:44;;;;;;;9.75;3.95;;;21.90;95.90;;;;;;5075460;28;20033;-62
2021/06/16 06:40:10;;;;;;;6.07;3.90;;;22.00;95.90;;;;;;5075341;28;20032;-62
2021/06/16 06:42:36;;;;;;;7.47;3.47;;;22.00;95.60;;;;;;5075680;28;20103;-62
2021/06/16 06:45:02;;;;;;;7.18;3.40;;;22.10;95.50;;;;;;5075565;28;20445;-62
2021/06/16 06:47:28;;;;;;;9.48;3.67;;;22.10;95.60;;;;;;5076345;28;20032;-62
2021/06/16 06:49:54;;;;;;;15.45;3.67;;;22.30;95.60;;;;;;5075658;28;20024;-62
2021/06/16 06:52:20;;;;;;;;;;;22.30;95.40;;;;;;5076081;28;20474;-61
2021/06/16 06:54:46;;;;;;;6.85;4.20;;;22.40;95.70;;;;;;5075746;28;20269;-61
2021/06/16 06:57:12;;;;;;;5.80;4.03;;;22.40;95.70;;;;;;5076207;28;20025;-61
2021/06/16 06:59:37;;;;;;;6.82;3.75;;;22.40;95.80;;;;;;5075717;28;20041;-61
2021/06/16 07:02:03;;;;;;;;;;;22.40;95.70;;;;;;5075867;28;20043;-61
2021/06/16 07:04:28;;;;;;;4.88;3.58;;;22.40;95.70;;;;;;5075360;28;19911;-62
2021/06/16 07:06:54;;;;;;;6.28;3.40;;;22.50;95.80;;;;;;5074993;28;20021;-61
2021/06/16 07:09:20;;;;;;;6.60;3.42;;;22.50;95.60;;;;;;5075120;28;20099;-63
2021/06/16 07:11:45;;;;;;;5.97;3.50;;;22.60;95.30;;;;;;5075087;28;20021;-61
2021/06/16 07:14:11;;;;;;;8.32;3.58;;;22.60;95.20;;;;;;5075013;28;20111;-62
2021/06/16 07:16:37;;;;;;;8.35;4.07;;;22.80;95.00;;;;;;5074913;28;20021;-62
2021/06/16 07:19:03;;;;;;;8.13;3.70;;;22.90;94.70;;;;;;5075049;28;20020;-63
2021/06/16 07:21:28;;;;;;;7.80;4.65;;;22.90;95.00;;;;;;5075349;28;20419;-62
2021/06/16 07:23:54;;;;;;;5.45;3.53;;;22.90;94.50;;;;;;5074932;28;20036;-61
2021/06/16 07:26:20;;;;;;;9.02;4.35;;;23.00;94.50;;;;;;5074910;28;20175;-62
2021/06/16 07:28:45;;;;;;;;;;;23.10;94.40;;;;;;5075087;28;20023;-64
2021/06/16 07:31:11;;;;;;;6.10;3.53;;;23.20;94.30;;;;;;5074753;28;20281;-60
2021/06/16 07:33:36;;;;;;;;;;;23.30;94.30;;;;;;5074996;28;20032;-62
2021/06/16 07:36:03;;;;;;;6.18;3.65;;;23.30;94.40;;;;;;5074517;28;19904;-62
2021/06/16 07:38:28;;;;;;;6.47;3.33;;;23.40;94.30;;;;;;5073509;28;20032;-61
2021/06/16 07:40:54;;;;;;;6.63;3.55;;;23.50;94.10;;;;;;5074705;28;20025;-62
2021/06/16 07:43:20;;;;;;;;;;;23.70;94.00;;;;;;5075000;28;20032;-62
2021/06/16 07:45:45;;;;;;;7.72;3.72;;;24.60;92.80;;;;;;5075406;28;20364;-63
2021/06/16 07:48:11;;;;;;;;;;;26.40;91.10;;;;;;5073711;28;20469;-63
2021/06/16 07:50:38;;;;;;;6.85;4.00;;;28.30;85.90;;;;;;5074192;28;19912;-64
2021/06/16 07:53:04;;;;;;;6.93;2.85;;;30.00;81.50;;;;;;5074100;28;20031;-63
2021/06/16 07:55:30;;;;;;;8.07;3.40;;;31.00;76.40;;;;;;5074139;28;20051;-62
2021/06/16 07:57:56;;;;;;;5.90;3.22;;;31.20;74.70;;;;;;5074409;28;20025;-63
2021/06/16 08:00:22;;;;;;;7.00;2.80;;;31.00;74.00;;;;;;5074143;28;20027;-62
2021/06/16 08:02:47;;;;;;;6.03;3.10;;;30.70;74.60;;;;;;5073785;28;20366;-62
2021/06/16 08:05:14;;;;;;;5.88;3.50;;;30.30;73.20;;;;;;5073986;28;20025;-60
2021/06/16 08:07:40;;;;;;;7.82;2.70;;;30.90;73.30;;;;;;5074210;28;20025;-63
2021/06/16 08:10:06;;;;;;;4.60;2.80;;;32.30;70.80;;;;;;5074220;28;20488;-63
2021/06/16 08:12:31;;;;;;;9.20;3.28;;;33.50;66.70;;;;;;5074104;28;20021;-63
2021/06/16 08:14:57;;;;;;;9.13;3.10;;;34.50;64.00;;;;;;5074126;28;20024;-64
2021/06/16 08:17:23;;;;;;;7.72;2.85;;;35.40;61.10;;;;;;5073922;28;20202;-62
2021/06/16 08:19:48;;;;;;;8.18;3.03;;;35.80;59.90;;;;;;5073768;28;20496;-62
2021/06/16 08:22:15;;;;;;;7.93;2.80;;;36.90;58.90;;;;;;5073466;28;20497;-63
2021/06/16 08:24:41;;;;;;;6.72;2.97;;;37.70;57.20;;;;;;5073843;28;20044;-62
2021/06/16 08:27:09;;;;;;;6.80;3.55;;;38.90;55.40;;;;;;5073807;28;20473;-62
2021/06/16 08:29:36;;;;;;;4.93;2.97;;;40.20;52.60;;;;;;5073427;28;20016;-62
2021/06/16 08:32:02;;;;;;;3.63;2.78;;;40.50;51.40;;;;;;5073501;28;20454;-61
2021/06/16 08:34:28;;;;;;;6.13;3.03;;;41.40;49.90;;;;;;5073678;28;20389;-61
2021/06/16 08:36:54;;;;;;;5.55;2.67;;;41.90;48.30;;;;;;5073611;28;20028;-62
2021/06/16 08:39:23;;;;;;;7.00;3.08;;;42.40;47.20;;;;;;5073384;28;20055;-62
2021/06/16 08:41:50;;;;;;;5.32;2.90;;;42.00;46.90;;;;;;5073500;28;20040;-63
2021/06/16 08:44:16;;;;;;;6.35;2.85;;;42.50;46.20;;;;;;5073015;28;20060;-63
2021/06/16 08:46:42;;;;;;;7.57;2.92;;;42.80;45.90;;;;;;5073280;28;20028;-62
2021/06/16 08:49:09;;;;;;;5.50;2.70;;;42.70;45.30;;;;;;5073545;28;20433;-64
2021/06/16 08:51:35;;;;;;;6.70;3.10;;;41.90;45.40;;;;;;5073276;28;20029;-63
2021/06/16 08:54:01;;;;;;;7.07;3.00;;;41.60;45.60;;;;;;5073185;28;20446;-63
2021/06/16 08:56:27;;;;;;;7.65;3.58;;;41.80;45.60;;;;;;5072964;28;20027;-63
2021/06/16 08:58:53;;;;;;;6.35;3.38;;;41.20;45.40;;;;;;5072872;28;20021;-63
2021/06/16 09:01:20;;;;;;;3.88;3.38;;;41.90;45.30;;;;;;5073081;28;20070;-63
2021/06/16 09:03:45;;;;;;;6.78;3.10;;;42.70;44.50;;;;;;5073103;28;20112;-63
2021/06/16 09:06:14;;;;;;;4.15;2.70;;;43.60;44.10;;;;;;5073410;28;20052;-63
2021/06/16 09:09:01;;;;;;;5.05;3.15;;;44.00;43.10;;;;;;5073293;28;20386;-63
2021/06/16 09:11:31;;;;;;;7.53;3.00;;;43.10;43.10;;;;;;5071543;28;20021;-63
2021/06/16 09:14:18;;;;;;;5.35;3.10;;;43.40;43.10;;;;;;5073013;28;20058;-63
2021/06/16 09:16:45;;;;;;;7.07;3.22;;;43.50;43.10;;;;;;5072920;28;20059;-63
2021/06/16 09:19:16;;;;;;;7.97;3.20;;;44.10;42.80;;;;;;5072648;28;20070;-63
2021/06/16 09:21:42;;;;;;;5.50;3.50;;;44.80;42.40;;;;;;5073033;28;20115;-64
2021/06/16 09:24:08;;;;;;;6.72;3.08;;;45.50;41.70;;;;;;5072549;28;20025;-64
2021/06/16 09:26:40;;;;;;;7.20;3.38;;;45.70;41.00;;;;;;5072427;28;20433;-64
2021/06/16 09:29:06;;;;;;;5.63;3.33;;;45.90;41.20;;;;;;5072740;28;20020;-64
2021/06/16 09:31:42;;;;;;;7.18;3.10;;;46.20;40.90;;;;;;5072772;28;20013;-63
2021/06/16 09:34:12;;;;;;;4.68;3.13;;;45.70;40.60;;;;;;5071677;28;20032;-63
2021/06/16 09:36:53;;;;;;;7.13;3.80;;;44.50;41.10;;;;;;5073007;28;20021;-63
2021/06/16 09:39:29;;;;;;;7.18;2.80;;;44.50;41.30;;;;;;5072924;28;20103;-63
2021/06/16 09:42:13;;;;;;;6.72;3.08;;;44.40;41.40;;;;;;5072828;28;20073;-63
2021/06/16 09:44:47;;;;;;;8.18;3.33;;;44.80;41.50;;;;;;5072758;28;20027;-63
2021/06/16 09:47:18;;;;;;;8.32;5.30;;;45.50;40.70;;;;;;5072350;28;20048;-63
2021/06/16 09:49:55;;;;;;;5.95;3.35;;;45.10;41.20;;;;;;5071280;28;20025;-63
2021/06/16 09:52:39;;;;;;;4.60;3.10;;;45.50;40.60;;;;;;5072694;28;20024;-63
2021/06/16 09:55:20;;;;;;;;;;;44.80;40.50;;;;;;5072866;28;20021;-63
2021/06/16 09:58:06;;;;;;;4.82;3.22;;;43.20;41.40;;;;;;5072862;28;19904;-62
2021/06/16 10:00:34;;;;;;;4.38;3.30;;;42.70;43.30;;;;;;5072810;28;20385;-64
2021/06/16 10:03:10;;;;;;;5.07;3.05;;;43.40;42.00;;;;;;5072628;28;20021;-64
2021/06/16 10:05:54;;;;;;;6.30;3.00;;;43.20;42.20;;;;;;5074054;28;20021;-63
2021/06/16 10:08:24;;;;;;;3.95;3.08;;;44.00;41.60;;;;;;5076253;28;20103;-63
2021/06/16 10:10:50;;;;;;;4.60;3.05;;;44.40;41.40;;;;;;5075819;28;20024;-63
2021/06/16 10:13:20;;;;;;;5.28;3.40;;;45.30;41.00;;;;;;5075985;28;20031;-63
2021/06/16 10:15:45;;;;;;;5.45;3.30;;;45.10;41.00;;;;;;5075819;28;20048;-64
2021/06/16 10:18:12;;;;;;;6.88;3.72;;;45.20;41.10;;;;;;5075913;28;20430;-63
2021/06/16 10:20:37;;;;;;;5.85;3.83;;;45.50;40.80;;;;;;5075965;28;20055;-62
2021/06/16 10:23:03;;;;;;;5.55;3.90;;;45.40;40.70;;;;;;5075934;28;20450;-63
2021/06/16 10:25:29;;;;;;;4.22;3.30;;;45.00;40.60;;;;;;5075650;28;20059;-63
2021/06/16 10:27:59;;;;;;;6.00;3.10;;;45.10;40.80;;;;;;5075638;28;20012;-63
2021/06/16 10:30:28;;;;;;;4.88;3.08;;;44.40;41.30;;;;;;5076185;28;20023;-63
2021/06/16 10:32:55;;;;;;;3.70;2.88;;;43.30;41.70;;;;;;5075566;28;20043;-63
2021/06/16 10:35:34;;;;;;;4.93;2.95;;;43.30;42.00;;;;;;5075960;28;20143;-63
2021/06/16 10:38:13;;;;;;;7.38;3.50;;;43.70;41.60;;;;;;5075378;28;20097;-62
2021/06/16 10:40:59;;;;;;;6.05;3.00;;;43.90;41.10;;;;;;5075455;28;20052;-63
2021/06/16 10:43:33;;;;;;;5.03;3.47;;;44.50;41.30;;;;;;5075920;28;20032;-63
2021/06/16 10:46:13;;;;;;;5.43;3.38;;;44.70;40.80;;;;;;5075776;28;20477;-63
2021/06/16 10:48:56;;;;;;;4.28;3.13;;;45.30;40.50;;;;;;5076187;28;20419;-63
2021/06/16 10:51:29;;;;;;;4.80;3.10;;;45.60;39.90;;;;;;5075986;28;20017;-63
2021/06/16 10:54:21;;;;;;;5.30;3.05;;;45.10;40.50;;;;;;5075994;28;20543;-63
2021/06/16 10:56:58;;;;;;;6.70;3.28;;;44.60;40.80;;;;;;5075500;28;20461;-63
2021/06/16 10:59:42;;;;;;;3.20;2.90;;;45.10;40.30;;;;;;5073501;28;20029;-63
2021/06/16 11:02:09;;;;;;;5.07;3.53;;;44.90;41.10;;;;;;5075133;28;20052;-63
2021/06/16 11:04:37;;;;;;;6.05;3.25;;;45.30;41.00;;;;;;5074818;28;20029;-63
2021/06/16 11:07:04;;;;;;;4.38;3.10;;;45.70;40.50;;;;;;5075278;28;20044;-63
2021/06/16 11:09:51;;;;;;;5.35;2.95;;;43.80;40.10;;;;;;5075303;28;20107;-63
2021/06/16 11:12:29;;;;;;;5.32;3.00;;;41.70;41.60;;;;;;5074814;28;20020;-62
2021/06/16 11:14:55;;;;;;;3.47;2.53;;;39.50;43.60;;;;;;5073572;28;20025;-62
2021/06/16 11:17:27;;;;;;;3.22;2.65;;;38.50;44.00;;;;;;5074727;28;20466;-62
2021/06/16 11:19:59;;;;;;;8.38;2.75;;;37.30;45.40;;;;;;5073654;28;20020;-63
2021/06/16 11:22:25;;;;;;;8.35;3.30;;;35.90;46.80;;;;;;5075064;28;20497;-62
2021/06/16 11:25:29;;;;;;;6.45;3.38;;;35.10;47.80;;;;;;5074895;28;20031;-62
2021/06/16 11:28:15;;;;;;;7.57;3.20;;;34.80;49.70;;;;;;5075574;28;20071;-62
2021/06/16 11:30:48;;;;;;;8.05;3.40;;;34.60;50.90;;;;;;5074505;28;20389;-61
2021/06/16 11:33:20;;;;;;;5.72;3.10;;;34.30;51.40;;;;;;5074924;28;20493;-61
2021/06/16 11:35:48;;;;;;;5.93;3.80;;;34.30;51.90;;;;;;5075734;28;20028;-64
2021/06/16 11:38:17;;;;;;;5.00;3.50;;;34.10;52.50;;;;;;5074227;28;20028;-61
2021/06/16 11:41:18;;;;;;;4.88;3.33;;;33.60;53.20;;;;;;5074198;28;20031;-64
2021/06/16 11:43:48;;;;;;;5.05;3.30;;;33.50;53.40;;;;;;5075061;28;20381;-63
2021/06/16 11:46:28;;;;;;;7.50;3.17;;;33.50;53.50;;;;;;5074833;28;20106;-64
2021/06/16 11:49:12;;;;;;;7.00;3.40;;;33.40;54.10;;;;;;5074487;28;20024;-62
2021/06/16 11:51:49;;;;;;;8.35;3.45;;;33.50;53.40;;;;;;5074752;28;20381;-64
2021/06/16 11:54:23;;;;;;;8.80;3.42;;;33.60;53.50;;;;;;5074734;28;20465;-64
2021/06/16 11:57:09;;;;;;;4.53;3.10;;;33.70;52.50;;;;;;5073216;28;20047;-64
2021/06/16 11:59:43;;;;;;;6.00;3.35;;;33.80;52.30;;;;;;5074126;28;20118;-64
2021/06/16 12:02:21;;;;;;;5.93;3.10;;;33.80;52.40;;;;;;5074102;28;20036;-63
2021/06/16 12:05:03;;;;;;;4.55;2.83;;;33.70;52.70;;;;;;5074130;28;20025;-63
2021/06/16 12:07:44;;;;;;;8.15;4.85;;;33.60;52.90;;;;;;5072750;28;20542;-63
2021/06/16 12:10:12;;;;;;;10.48;6.90;;;33.70;52.90;;;;;;5074056;28;20032;-63
2021/06/16 12:12:49;;;;;;;5.78;3.70;;;33.80;52.60;;;;;;5074027;28;20024;-63
2021/06/16 12:15:19;;;;;;;4.40;3.25;;;33.80;52.70;;;;;;5073680;28;20024;-63
2021/06/16 12:17:59;;;;;;;5.88;3.50;;;33.90;52.30;;;;;;5074336;28;20516;-63
2021/06/16 12:20:28;;;;;;;6.72;3.60;;;33.80;52.40;;;;;;5073888;28;20033;-63
2021/06/16 12:22:53;;;;;;;5.50;3.50;;;33.80;52.40;;;;;;5073455;28;20028;-64
2021/06/16 12:25:34;;;;;;;6.22;3.35;;;33.80;52.30;;;;;;5073550;28;20025;-63
2021/06/16 12:28:01;;;;;;;8.23;3.38;;;33.70;52.40;;;;;;5073183;28;20028;-64
2021/06/16 12:30:30;;;;;;;4.18;3.20;;;33.60;52.80;;;;;;5072375;28;20397;-63
2021/06/16 12:35:54;;;;;;;5.50;3.30;;;33.20;53.40;;;;;;5072993;28;20017;-63
2021/06/16 12:38:34;;;;;;;8.57;3.85;;;33.20;53.10;;;;;;5072139;28;20071;-63
2021/06/16 12:40:59;;;;;;;4.95;3.13;;;33.10;52.90;;;;;;5073141;28;20113;-63
2021/06/16 12:43:26;;;;;;;9.88;3.40;;;33.00;53.50;;;;;;5074527;28;20150;-63
2021/06/16 12:45:59;;;;;;;5.80;2.83;;;32.90;53.50;;;;;;5074422;28;20017;-63
2021/06/16 12:48:28;;;;;;;11.98;3.55;;;32.70;53.90;;;;;;5072679;28;20491;-63
2021/06/16 12:50:57;;;;;;;4.60;3.80;;;32.60;54.40;;;;;;5073644;28;20028;-63
2021/06/16 12:53:24;;;;;;;7.97;3.75;;;32.40;54.10;;;;;;5073787;28;20489;-63
2021/06/16 12:55:53;;;;;;;7.95;2.95;;;32.40;53.40;;;;;;5074420;28;20153;-64
2021/06/16 12:58:23;;;;;;;14.07;8.50;;;32.40;51.90;;;;;;5074392;28;20093;-64
2021/06/16 13:00:51;;;;;;;4.97;2.88;;;32.40;52.50;;;;;;5074883;28;20111;-64
2021/06/16 13:03:21;;;;;;;7.10;4.63;;;32.40;51.70;;;;;;5075026;28;20024;-63